Time;durP1;ratioP1;P1;durP2;ratioP2;P2;SDS_P1;SDS_P2;PMS_P1;PMS_P2;Temp;Humidity;BMP_temperature;BMP_pressure;BME280_temperature;BME280_humidity;BME280_pressure;Samples;Min_cycle;Max_cycle;Signal;HPM_P1;HPM_P2
2023/04/05 00:01:07;;;;;;;8.43;3.65;;;;;;;-1.04;100.00;99347.22;5039931;28;20044;-76
2023/04/05 00:03:32;;;;;;;6.40;3.60;;;;;;;-0.79;100.00;99370.06;5032510;28;20039;-76
2023/04/05 00:05:58;;;;;;;8.60;3.60;;;;;;;-0.87;100.00;99375.13;5037560;28;20029;-76
2023/04/05 00:08:25;;;;;;;6.03;3.55;;;;;;;-0.81;100.00;99350.78;5031303;28;20037;-77
2023/04/05 00:10:51;;;;;;;6.40;3.50;;;;;;;-0.77;100.00;99346.91;5028814;28;20024;-76
2023/04/05 00:13:16;;;;;;;6.78;3.38;;;;;;;-0.85;100.00;99344.00;5043884;28;20086;-76
2023/04/05 00:15:41;;;;;;;8.43;3.50;;;;;;;-0.80;100.00;99360.44;5035852;28;20036;-76
2023/04/05 00:18:07;;;;;;;8.05;3.58;;;;;;;-0.91;100.00;99339.16;5054285;28;20044;-76
2023/04/05 00:20:32;;;;;;;7.55;3.33;;;;;;;-0.89;100.00;99353.19;5030141;28;20491;-76
2023/04/05 00:22:58;;;;;;;8.25;3.60;;;;;;;-0.97;100.00;99345.78;5025406;28;20033;-76
2023/04/05 00:25:24;;;;;;;8.70;3.20;;;;;;;-1.12;100.00;99338.97;5067009;28;20036;-76
2023/04/05 00:27:50;;;;;;;7.43;3.40;;;;;;;-1.12;100.00;99347.78;5053436;28;20025;-76
2023/04/05 00:30:19;;;;;;;8.77;3.53;;;;;;;-1.19;100.00;99335.94;5056457;28;20074;-76
2023/04/05 00:32:48;;;;;;;6.20;3.63;;;;;;;-1.33;100.00;99331.66;5035431;28;20398;-76
2023/04/05 00:35:14;;;;;;;6.18;3.83;;;;;;;-1.24;100.00;99331.94;5042026;28;20025;-76
2023/04/05 00:37:39;;;;;;;7.18;3.72;;;;;;;-1.44;100.00;99299.78;5028124;28;20143;-76
2023/04/05 00:40:06;;;;;;;7.13;3.88;;;;;;;-1.25;100.00;99333.75;5048060;28;20032;-76
2023/04/05 00:42:31;;;;;;;7.47;3.72;;;;;;;-1.31;100.00;99334.22;5030766;28;20029;-76
2023/04/05 00:44:56;;;;;;;7.55;3.40;;;;;;;-1.21;100.00;99306.00;5036057;28;20033;-76
2023/04/05 00:47:22;;;;;;;8.02;3.30;;;;;;;-1.25;100.00;99314.31;5039722;28;20017;-76
2023/04/05 00:49:47;;;;;;;8.68;3.50;;;;;;;-1.38;100.00;99314.41;5042293;28;20046;-76
2023/04/05 00:52:14;;;;;;;6.25;3.25;;;;;;;-1.46;100.00;99317.63;5034115;28;20065;-76
2023/04/05 00:54:40;;;;;;;7.82;3.45;;;;;;;-1.67;100.00;99287.38;5037006;28;20025;-76
2023/04/05 00:57:06;;;;;;;7.38;3.50;;;;;;;-1.45;100.00;99313.16;5037443;28;20036;-77
2023/04/05 00:59:32;;;;;;;8.90;3.58;;;;;;;-1.44;100.00;99305.09;5041237;28;20048;-76
2023/04/05 01:02:12;;;;;;;7.53;3.28;;;;;;;-1.42;100.00;99287.22;5032825;28;20477;-76
2023/04/05 01:04:40;;;;;;;5.63;3.05;;;;;;;-1.45;100.00;99307.84;5048612;28;20418;-76
2023/04/05 01:07:16;;;;;;;7.40;3.10;;;;;;;-1.35;100.00;99314.16;5053148;28;20036;-76
2023/04/05 01:09:47;;;;;;;6.97;3.58;;;;;;;-1.42;100.00;99307.59;5034590;28;20017;-76
2023/04/05 01:12:16;;;;;;;5.88;3.35;;;;;;;-1.50;100.00;99302.03;5037632;28;20430;-76
2023/04/05 01:14:50;;;;;;;8.07;3.40;;;;;;;-1.42;100.00;99295.19;5054153;28;20032;-76
2023/04/05 01:17:27;;;;;;;4.82;3.10;;;;;;;-1.46;100.00;99290.25;5027738;28;20021;-76
2023/04/05 01:19:59;;;;;;;7.78;3.28;;;;;;;-1.53;100.00;99296.97;5048208;28;20028;-76
2023/04/05 01:23:02;;;;;;;7.63;3.78;;;;;;;-1.47;100.00;99293.84;5037803;28;20379;-76
2023/04/05 01:25:58;;;;;;;5.95;3.47;;;;;;;-1.47;100.00;99296.50;5029501;28;20027;-76
2023/04/05 01:28:57;;;;;;;7.25;3.25;;;;;;;-1.47;100.00;99293.84;5034929;28;20024;-76
2023/04/05 01:31:45;;;;;;;6.82;3.30;;;;;;;-1.57;100.00;99275.13;5034429;28;20501;-76
2023/04/05 01:34:23;;;;;;;8.98;3.30;;;;;;;-1.78;100.00;99259.00;5051214;28;20441;-76
2023/04/05 01:36:56;;;;;;;9.75;3.40;;;;;;;-1.68;100.00;99285.69;5033133;28;20032;-76
2023/04/05 01:39:23;;;;;;;4.35;2.70;;;;;;;-1.62;100.00;99280.78;5037200;28;20035;-76
2023/04/05 01:41:48;;;;;;;6.90;3.40;;;;;;;-1.52;100.00;99261.50;5026732;28;20033;-76
2023/04/05 01:44:14;;;;;;;7.57;3.15;;;;;;;-1.22;100.00;99283.06;5052567;28;20037;-76
2023/04/05 01:46:40;;;;;;;5.57;3.00;;;;;;;-1.33;100.00;99273.28;5053092;28;20028;-76
2023/04/05 01:49:05;;;;;;;6.10;3.00;;;;;;;-1.35;100.00;99284.97;5038140;28;20040;-76
2023/04/05 01:51:31;;;;;;;5.28;2.83;;;;;;;-1.36;100.00;99286.78;5028449;28;20025;-76
2023/04/05 01:53:56;;;;;;;5.60;3.22;;;;;;;-1.48;100.00;99276.25;5017423;28;20064;-75
2023/04/05 01:56:22;;;;;;;7.70;3.65;;;;;;;-1.64;100.00;99271.25;5034659;28;20095;-76
2023/04/05 01:58:47;;;;;;;9.27;3.45;;;;;;;-1.60;100.00;99283.28;5053182;28;20031;-76
2023/04/05 02:01:12;;;;;;;5.35;3.05;;;;;;;-1.56;100.00;99276.81;5051258;28;20021;-76
2023/04/05 02:03:38;;;;;;;6.65;3.65;;;;;;;-1.67;100.00;99269.66;5034302;28;20024;-76
2023/04/05 02:06:04;;;;;;;7.50;3.35;;;;;;;-1.59;100.00;99283.19;5026113;28;20013;-76
2023/04/05 02:08:29;;;;;;;9.13;3.63;;;;;;;-1.71;100.00;99259.38;5057028;28;20108;-76
2023/04/05 02:10:55;;;;;;;7.13;3.03;;;;;;;-1.55;100.00;99270.53;5033608;28;20542;-76
2023/04/05 02:13:21;;;;;;;6.22;3.60;;;;;;;-1.52;100.00;99264.16;5034678;28;20375;-76
2023/04/05 02:15:49;;;;;;;6.38;3.40;;;;;;;-1.56;100.00;99275.00;5051304;28;20171;-76
2023/04/05 02:18:15;;;;;;;5.97;3.17;;;;;;;-1.58;100.00;99270.75;5044210;28;21934;-76
2023/04/05 02:20:41;;;;;;;6.20;3.17;;;;;;;-1.73;100.00;99272.75;5027227;28;20049;-76
2023/04/05 02:23:07;;;;;;;7.85;3.58;;;;;;;-1.72;100.00;99282.41;5051031;28;20017;-76
2023/04/05 02:25:32;;;;;;;7.72;3.35;;;;;;;-1.83;100.00;99259.34;5033293;28;20021;-76
2023/04/05 02:27:57;;;;;;;6.57;2.95;;;;;;;-1.93;100.00;99260.97;5028105;28;20375;-76
2023/04/05 02:30:23;;;;;;;6.88;2.90;;;;;;;-2.03;100.00;99252.84;5027764;28;20033;-76
2023/04/05 02:32:48;;;;;;;7.68;3.40;;;;;;;-2.08;100.00;99251.50;5048983;28;20513;-76
2023/04/05 02:35:16;;;;;;;7.45;3.20;;;;;;;-2.10;100.00;99258.69;5042638;28;20034;-76
2023/04/05 02:37:41;;;;;;;8.20;3.28;;;;;;;-2.12;100.00;99265.91;5055453;28;20017;-76
2023/04/05 02:40:12;;;;;;;6.35;3.13;;;;;;;-2.23;100.00;99253.44;5038207;28;20025;-76
2023/04/05 02:42:37;;;;;;;6.78;3.10;;;;;;;-2.28;100.00;99255.59;5040370;28;20055;-77
2023/04/05 02:45:04;;;;;;;8.90;2.88;;;;;;;-2.28;100.00;99251.16;5050663;28;20060;-76
2023/04/05 02:47:30;;;;;;;5.90;2.97;;;;;;;-2.30;100.00;99268.97;5039157;23;20091;-58
2023/04/05 02:49:56;;;;;;;6.40;3.05;;;;;;;-2.27;100.00;99263.44;5019155;28;20037;-65
2023/04/05 02:52:21;;;;;;;10.23;3.50;;;;;;;-2.28;100.00;99269.69;5014979;28;20039;-66
2023/04/05 02:54:46;;;;;;;7.75;2.83;;;;;;;-2.33;100.00;99277.13;5008233;28;20124;-65
2023/04/05 02:57:12;;;;;;;6.00;3.08;;;;;;;-2.37;100.00;99274.81;5012338;28;20417;-66
2023/04/05 02:59:38;;;;;;;5.95;3.30;;;;;;;-2.46;100.00;99263.91;5028478;28;20036;-66
2023/04/05 03:02:06;;;;;;;11.20;3.45;;;;;;;-2.57;100.00;99253.22;5018291;28;20052;-65
2023/04/05 03:04:33;;;;;;;5.90;3.35;;;;;;;-2.50;100.00;99259.78;5012835;28;20473;-66
2023/04/05 03:07:03;;;;;;;6.38;3.47;;;;;;;-2.58;100.00;99270.06;5011521;28;20060;-64
2023/04/05 03:09:32;;;;;;;7.30;3.78;;;;;;;-2.56;100.00;99262.03;5006364;28;20022;-64
2023/04/05 03:12:03;;;;;;;9.18;3.75;;;;;;;-2.69;100.00;99262.88;5011194;28;20120;-64
2023/04/05 03:14:29;;;;;;;8.80;4.10;;;;;;;-2.65;100.00;99258.22;5017486;28;20029;-64
2023/04/05 03:16:55;;;;;;;7.63;3.95;;;;;;;-2.75;100.00;99262.47;5026702;28;20218;-64
2023/04/05 03:19:21;;;;;;;10.13;4.32;;;;;;;-2.81;100.00;99260.25;5010016;28;20025;-65
2023/04/05 03:21:48;;;;;;;10.13;5.03;;;;;;;-2.80;100.00;99259.28;5012642;28;20637;-67
2023/04/05 03:24:14;;;;;;;10.27;4.20;;;;;;;-2.87;100.00;99267.66;5014706;28;20044;-65
2023/04/05 03:26:44;;;;;;;9.18;4.53;;;;;;;-2.89;100.00;99253.69;5008835;28;20120;-65
2023/04/05 03:29:09;;;;;;;;;;;;;;;-3.00;100.00;99248.31;5021774;28;20108;-65
2023/04/05 03:31:35;;;;;;;7.43;4.10;;;;;;;-2.97;100.00;99250.72;5019827;28;20047;-66
2023/04/05 03:34:00;;;;;;;8.40;4.30;;;;;;;-2.94;100.00;99257.63;5018591;28;20030;-65
2023/04/05 03:36:27;;;;;;;9.07;4.30;;;;;;;-2.91;100.00;99260.03;5017945;28;20025;-65
2023/04/05 03:38:54;;;;;;;9.73;4.47;;;;;;;-2.91;100.00;99268.84;5008097;28;20073;-66
2023/04/05 03:41:20;;;;;;;7.80;4.45;;;;;;;-2.78;100.00;99265.34;4992154;28;20066;-65
2023/04/05 03:43:45;;;;;;;13.50;4.63;;;;;;;-2.90;100.00;99261.75;5022529;28;20032;-65
2023/04/05 03:46:11;;;;;;;9.65;5.32;;;;;;;-3.01;100.00;99264.28;5036097;28;20013;-65
2023/04/05 03:48:39;;;;;;;9.93;4.50;;;;;;;-3.04;100.00;99267.13;5007613;28;20036;-66
2023/04/05 03:51:05;;;;;;;6.03;3.65;;;;;;;-3.13;100.00;99266.00;5019312;28;20381;-66
2023/04/05 03:53:31;;;;;;;11.85;5.50;;;;;;;-3.17;100.00;99261.84;5017675;28;20535;-65
2023/04/05 03:55:57;;;;;;;8.20;4.57;;;;;;;-3.18;100.00;99260.16;5010971;28;20029;-66
2023/04/05 03:58:25;;;;;;;8.50;4.53;;;;;;;-3.19;100.00;99264.63;5032016;28;20381;-66
2023/04/05 04:00:51;;;;;;;6.95;4.43;;;;;;;-3.22;100.00;99277.19;5014052;28;20062;-63
2023/04/05 04:03:18;;;;;;;8.73;4.22;;;;;;;-3.23;100.00;99273.69;5020565;28;20020;-63
2023/04/05 04:05:43;;;;;;;13.85;4.60;;;;;;;-3.22;100.00;99264.81;5012853;28;20022;-62
2023/04/05 04:08:09;;;;;;;8.13;4.15;;;;;;;-3.14;100.00;99259.00;5006965;28;20080;-64
2023/04/05 04:10:35;;;;;;;7.75;4.40;;;;;;;-3.12;100.00;99265.03;5011691;28;20021;-63
2023/04/05 04:13:01;;;;;;;8.85;4.68;;;;;;;-3.16;100.00;99267.03;5013693;28;20028;-63
2023/04/05 04:15:26;;;;;;;14.25;4.88;;;;;;;-3.27;100.00;99272.22;5017258;28;20057;-63
2023/04/05 04:17:55;;;;;;;10.88;4.75;;;;;;;-3.41;100.00;99265.22;5016793;28;20036;-63
2023/04/05 04:20:20;;;;;;;11.40;4.72;;;;;;;-3.52;100.00;99267.75;5022478;28;20029;-64
2023/04/05 04:22:47;;;;;;;13.00;6.38;;;;;;;-3.49;100.00;99267.53;5025527;28;20043;-64
2023/04/05 04:25:15;;;;;;;13.15;5.82;;;;;;;-3.48;100.00;99269.25;5025991;28;20048;-63
2023/04/05 04:27:42;;;;;;;10.18;5.40;;;;;;;-3.47;100.00;99262.16;5017558;28;20029;-64
2023/04/05 04:30:09;;;;;;;10.93;5.57;;;;;;;-3.46;100.00;99262.03;5010427;28;20063;-64
2023/04/05 04:32:55;;;;;;;15.63;6.78;;;;;;;-3.54;100.00;99264.34;5007880;28;20413;-64
2023/04/05 04:35:27;;;;;;;11.55;6.43;;;;;;;-3.61;100.00;99263.06;5008665;28;20018;-63
2023/04/05 04:37:58;;;;;;;11.80;6.43;;;;;;;-3.59;100.00;99263.81;4997116;28;20038;-63
2023/04/05 04:40:39;;;;;;;14.13;6.80;;;;;;;-3.67;100.00;99260.81;5013348;28;20039;-64
2023/04/05 04:43:17;;;;;;;13.55;6.55;;;;;;;-3.71;100.00;99259.34;5013025;28;20040;-64
2023/04/05 04:45:47;;;;;;;12.40;6.97;;;;;;;-3.93;100.00;99220.25;5019239;28;20076;-63
2023/04/05 04:48:15;;;;;;;12.00;6.40;;;;;;;-3.68;100.00;99262.63;5020426;28;20037;-63
2023/04/05 04:50:43;;;;;;;10.77;5.32;;;;;;;-3.65;100.00;99262.41;5029141;28;20539;-65
2023/04/05 04:53:08;;;;;;;12.23;6.55;;;;;;;-3.50;100.00;99254.41;5025179;28;20036;-64
2023/04/05 04:55:35;;;;;;;11.20;6.47;;;;;;;-3.58;100.00;99266.34;5025255;28;20028;-64
2023/04/05 04:58:00;;;;;;;12.55;5.70;;;;;;;-3.66;100.00;99262.53;5013460;28;21113;-64
2023/04/05 05:00:26;;;;;;;13.65;6.40;;;;;;;-3.62;100.00;99266.66;5007255;28;20112;-64
2023/04/05 05:02:52;;;;;;;9.05;5.32;;;;;;;-3.42;100.00;99268.81;5014396;28;20024;-64
2023/04/05 05:05:21;;;;;;;9.88;5.25;;;;;;;-3.38;100.00;99267.66;5023658;28;20021;-65
2023/04/05 05:07:48;;;;;;;14.35;5.97;;;;;;;-3.21;100.00;99268.31;5018422;28;20045;-65
2023/04/05 05:10:15;;;;;;;10.35;5.05;;;;;;;-3.13;100.00;99266.00;5000513;28;22006;-65
2023/04/05 05:12:41;;;;;;;11.75;4.78;;;;;;;-3.15;100.00;99270.53;5000653;28;20159;-65
2023/04/05 05:15:07;;;;;;;11.23;4.45;;;;;;;-3.10;100.00;99268.41;5011905;28;20469;-65
2023/04/05 05:17:34;;;;;;;12.57;4.60;;;;;;;-2.95;100.00;99269.16;5030158;28;20183;-63
2023/04/05 05:20:00;;;;;;;9.65;4.50;;;;;;;-2.84;100.00;99266.63;5015506;28;20469;-65
2023/04/05 05:22:26;;;;;;;14.32;4.72;;;;;;;-2.84;100.00;99274.56;5016256;28;20087;-65
2023/04/05 05:24:52;;;;;;;9.73;4.97;;;;;;;-2.78;100.00;99263.53;5009143;28;20064;-65
2023/04/05 05:27:18;;;;;;;9.63;4.80;;;;;;;-2.59;100.00;99271.03;5009975;28;20160;-66
2023/04/05 05:29:43;;;;;;;10.25;4.97;;;;;;;-2.49;100.00;99269.44;5017703;28;20489;-65
2023/04/05 05:32:13;;;;;;;8.20;4.53;;;;;;;-2.46;100.00;99268.38;5009905;28;20416;-66
2023/04/05 05:34:39;;;;;;;10.95;4.82;;;;;;;-1.97;100.00;99264.81;5003141;28;20036;-66
2023/04/05 05:37:05;;;;;;;11.45;4.90;;;;;;;0.06;100.00;99260.59;5003113;28;20041;-66
2023/04/05 05:39:30;;;;;;;7.30;4.10;;;;;;;2.50;100.00;99247.41;4990837;28;20555;-64
2023/04/05 05:41:56;;;;;;;6.63;3.90;;;;;;;4.46;100.00;99243.81;5024906;28;20044;-65
2023/04/05 05:44:21;;;;;;;8.30;3.80;;;;;;;5.77;99.39;99241.16;5007224;28;20037;-65
2023/04/05 05:46:47;;;;;;;10.13;3.67;;;;;;;7.18;75.98;99232.09;5004662;28;20025;-66
2023/04/05 05:49:12;;;;;;;6.07;3.38;;;;;;;7.69;66.58;99240.69;5008547;28;20057;-64
2023/04/05 05:51:37;;;;;;;8.13;3.63;;;;;;;8.25;64.60;99242.44;5020197;28;20060;-64
2023/04/05 05:54:03;;;;;;;6.03;3.58;;;;;;;8.20;61.34;99250.19;5018016;28;20489;-64
2023/04/05 05:56:28;;;;;;;7.28;3.55;;;;;;;8.81;59.50;99226.91;5017011;28;20034;-64
2023/04/05 05:58:53;;;;;;;7.43;3.50;;;;;;;9.38;57.04;99239.03;5020010;28;20064;-63
2023/04/05 06:01:21;;;;;;;8.77;3.60;;;;;;;9.21;56.23;99239.19;5007498;28;20025;-64
2023/04/05 06:03:47;;;;;;;6.25;3.50;;;;;;;8.88;57.03;99238.66;5006914;28;20026;-65
2023/04/05 06:06:12;;;;;;;8.35;4.18;;;;;;;8.11;58.71;99255.66;5026679;28;20033;-64
2023/04/05 06:08:38;;;;;;;8.55;4.40;;;;;;;7.24;62.69;99261.00;5006504;28;20553;-65
2023/04/05 06:11:03;;;;;;;8.27;3.75;;;;;;;10.19;57.13;99247.16;5013929;28;20121;-65
2023/04/05 06:13:29;;;;;;;7.32;3.60;;;;;;;13.72;47.87;99256.03;5027898;28;20082;-65
2023/04/05 06:15:55;;;;;;;8.82;3.50;;;;;;;13.54;44.97;99242.28;5017187;28;20398;-65
2023/04/05 06:18:20;;;;;;;6.05;3.30;;;;;;;13.77;44.03;99248.06;5005903;28;20393;-65
2023/04/05 06:20:45;;;;;;;11.30;4.60;;;;;;;12.20;46.71;99256.72;5008403;28;20067;-64
2023/04/05 06:23:11;;;;;;;9.85;5.50;;;;;;;13.30;45.73;99252.75;4999972;28;20392;-64
2023/04/05 06:25:36;;;;;;;13.35;5.85;;;;;;;14.21;43.56;99253.81;5011650;28;20025;-64
2023/04/05 06:28:03;;;;;;;9.45;5.43;;;;;;;15.83;42.02;99247.84;5007046;28;20035;-63
2023/04/05 06:30:28;;;;;;;8.95;4.45;;;;;;;16.58;40.18;99258.44;5010025;28;20021;-64
2023/04/05 06:32:54;;;;;;;6.32;3.85;;;;;;;16.57;38.94;99246.69;5009341;28;20025;-63
2023/04/05 06:35:21;;;;;;;7.70;3.90;;;;;;;17.45;38.01;99245.13;5022357;28;20386;-63
2023/04/05 06:37:46;;;;;;;8.10;4.05;;;;;;;18.29;36.76;99241.25;5010506;28;20025;-64
2023/04/05 06:40:12;;;;;;;8.40;4.00;;;;;;;17.45;36.13;99233.38;4998097;28;20034;-64
2023/04/05 06:42:37;;;;;;;7.75;3.97;;;;;;;18.05;36.18;99233.09;5008250;28;20025;-63
2023/04/05 06:45:03;;;;;;;6.70;4.05;;;;;;;19.43;35.09;99229.31;5014073;28;20029;-64
2023/04/05 06:47:35;;;;;;;8.90;4.38;;;;;;;19.78;33.75;99231.78;5015711;28;20021;-65
2023/04/05 06:50:02;;;;;;;8.30;4.68;;;;;;;19.22;34.11;99228.16;5026700;28;20031;-64
2023/04/05 06:52:28;;;;;;;9.93;4.93;;;;;;;17.88;34.81;99245.84;5013469;28;20356;-64
2023/04/05 06:54:53;;;;;;;7.85;4.90;;;;;;;18.05;35.17;99232.22;5008244;28;20025;-64
2023/04/05 06:57:19;;;;;;;8.05;4.72;;;;;;;17.44;35.63;99239.88;5013974;28;20087;-64
2023/04/05 06:59:45;;;;;;;7.50;4.80;;;;;;;16.77;36.43;99240.13;5010336;28;20045;-63
2023/04/05 07:02:11;;;;;;;7.93;4.20;;;;;;;16.26;37.27;99250.44;5006258;28;20022;-63
2023/04/05 07:04:36;;;;;;;8.98;4.60;;;;;;;15.12;38.04;99250.75;5010883;28;20032;-64
2023/04/05 07:07:03;;;;;;;7.45;4.03;;;;;;;15.70;36.93;99248.81;5013577;28;20053;-63
2023/04/05 07:09:31;;;;;;;6.88;4.03;;;;;;;16.44;36.52;99239.50;5025710;28;20025;-66
2023/04/05 07:11:57;;;;;;;9.60;4.75;;;;;;;17.40;35.68;99249.66;5010430;28;20430;-66
2023/04/05 07:14:23;;;;;;;6.82;3.97;;;;;;;16.97;36.12;99243.38;5015020;28;20109;-65
2023/04/05 07:16:48;;;;;;;8.27;3.60;;;;;;;16.50;37.26;99240.47;5030092;28;20492;-66
2023/04/05 07:19:14;;;;;;;7.38;3.47;;;;;;;18.49;34.55;99240.81;5013093;28;20068;-66
2023/04/05 07:21:39;;;;;;;5.80;3.42;;;;;;;19.59;33.71;99233.94;5005252;28;20036;-65
2023/04/05 07:24:05;;;;;;;6.55;3.55;;;;;;;19.76;32.16;99235.88;5026162;28;20551;-65
2023/04/05 07:26:34;;;;;;;6.68;3.47;;;;;;;20.45;31.68;99238.13;5016163;28;20399;-65
2023/04/05 07:29:00;;;;;;;;;;;;;;;22.44;31.10;99231.41;5028273;28;20033;-65
2023/04/05 07:31:26;;;;;;;5.40;3.30;;;;;;;23.87;28.81;99221.56;5000879;28;20296;-65
2023/04/05 07:33:52;;;;;;;5.78;3.33;;;;;;;23.14;27.40;99223.56;4999175;28;20153;-66
2023/04/05 07:36:18;;;;;;;4.38;3.05;;;;;;;22.38;28.64;99226.16;5009459;28;20179;-65
2023/04/05 07:38:43;;;;;;;5.93;2.95;;;;;;;22.97;28.55;99226.59;5012559;28;20044;-65
2023/04/05 07:41:10;;;;;;;4.68;3.10;;;;;;;24.79;27.80;99212.91;5012605;28;20098;-65
2023/04/05 07:43:35;;;;;;;5.68;2.97;;;;;;;25.39;26.58;99219.09;5009147;28;20030;-65
2023/04/05 07:46:04;;;;;;;9.32;3.20;;;;;;;25.48;26.35;99222.88;5021174;28;20029;-66
2023/04/05 07:48:29;;;;;;;5.75;2.85;;;;;;;24.27;26.93;99226.13;5009568;28;20021;-66
2023/04/05 07:50:55;;;;;;;4.28;2.78;;;;;;;24.70;26.73;99226.50;5007078;28;20029;-66
2023/04/05 07:53:20;;;;;;;4.85;3.15;;;;;;;25.19;26.42;99227.56;5011108;28;20017;-67
2023/04/05 07:55:46;;;;;;;4.95;2.80;;;;;;;25.59;26.01;99226.38;5034065;28;20384;-66
2023/04/05 07:58:11;;;;;;;4.65;2.85;;;;;;;25.71;26.38;99224.03;5012122;28;20033;-66
2023/04/05 08:00:37;;;;;;;6.25;2.97;;;;;;;23.92;27.00;99224.31;5006571;28;20104;-66
2023/04/05 08:03:03;;;;;;;5.43;3.10;;;;;;;23.16;28.05;99226.03;5005912;28;20057;-67
2023/04/05 08:05:29;;;;;;;6.00;3.08;;;;;;;23.01;28.24;99231.56;5012673;28;20104;-67
2023/04/05 08:07:56;;;;;;;5.25;3.38;;;;;;;20.58;30.75;99235.81;5010588;28;20164;-68
2023/04/05 08:10:26;;;;;;;6.80;3.30;;;;;;;22.81;29.31;99227.66;5004695;28;20115;-68
2023/04/05 08:12:51;;;;;;;5.80;3.28;;;;;;;25.22;27.07;99225.03;5013354;28;20022;-66
2023/04/05 08:15:17;;;;;;;5.55;3.30;;;;;;;25.91;26.64;99223.03;5012222;28;20037;-68
2023/04/05 08:17:49;;;;;;;4.65;3.20;;;;;;;26.13;26.82;99216.13;5029250;28;20021;-67
2023/04/05 08:20:14;;;;;;;6.35;3.30;;;;;;;24.71;27.04;99220.69;5016435;28;20017;-68
2023/04/05 08:22:40;;;;;;;5.10;3.05;;;;;;;24.16;28.01;99219.00;5014669;28;20495;-67
2023/04/05 08:25:06;;;;;;;5.78;3.28;;;;;;;24.60;27.50;99213.56;5023905;28;20037;-68
2023/04/05 08:27:31;;;;;;;9.40;3.22;;;;;;;24.98;27.37;99216.63;5007453;28;20022;-67
2023/04/05 08:29:57;;;;;;;4.55;3.28;;;;;;;23.88;26.92;99206.66;5015290;28;20029;-68
2023/04/05 08:32:25;;;;;;;5.90;3.13;;;;;;;24.64;27.19;99206.31;5012379;28;20033;-67
2023/04/05 08:34:50;;;;;;;6.35;3.47;;;;;;;24.33;26.83;99202.88;5001125;28;20033;-68
2023/04/05 08:37:18;;;;;;;10.15;3.42;;;;;;;26.72;25.87;99212.00;5005076;28;20033;-67
2023/04/05 08:39:43;;;;;;;7.18;3.38;;;;;;;27.44;24.96;99213.69;5009217;28;20068;-67
2023/04/05 08:42:17;;;;;;;5.90;3.17;;;;;;;27.29;24.25;99214.75;5008316;28;20508;-67
2023/04/05 08:44:52;;;;;;;5.63;2.92;;;;;;;24.31;26.37;99212.56;5013887;28;20029;-67
2023/04/05 08:47:18;;;;;;;5.15;3.13;;;;;;;24.23;26.60;99217.59;5028579;28;20079;-57
2023/04/05 08:49:44;;;;;;;6.38;3.58;;;;;;;24.10;27.19;99209.88;5012711;23;20084;-69
2023/04/05 08:52:10;;;;;;;5.32;3.20;;;;;;;23.66;26.13;99220.75;4979301;28;20478;-69
2023/04/05 08:54:36;;;;;;;8.50;3.22;;;;;;;24.21;26.21;99211.50;4996398;28;20039;-69
2023/04/05 08:57:07;;;;;;;8.35;3.90;;;;;;;24.09;26.53;99213.75;5013385;28;20025;-68
2023/04/05 08:59:35;;;;;;;5.65;3.33;;;;;;;23.78;27.00;99213.84;5010311;28;20370;-66
2023/04/05 09:02:05;;;;;;;6.63;3.40;;;;;;;22.61;26.80;99214.66;5009608;28;20041;-66
2023/04/05 09:04:38;;;;;;;6.50;3.47;;;;;;;22.82;26.00;99215.53;5002412;28;20029;-66
2023/04/05 09:07:05;;;;;;;8.25;3.70;;;;;;;22.64;27.51;99211.34;4998231;28;20046;-65
2023/04/05 09:09:34;;;;;;;5.30;3.53;;;;;;;23.44;25.21;99208.09;5006722;28;20386;-65
2023/04/05 09:12:02;;;;;;;7.03;3.60;;;;;;;21.84;26.98;99213.50;5008877;28;20392;-64
2023/04/05 09:14:29;;;;;;;7.88;3.17;;;;;;;24.95;25.58;99208.06;5026098;28;20107;-64
2023/04/05 09:16:55;;;;;;;5.65;3.10;;;;;;;23.81;25.21;99209.69;5012424;28;20141;-65
2023/04/05 09:19:20;;;;;;;5.82;3.40;;;;;;;24.17;24.31;99213.19;5032326;28;20175;-65
2023/04/05 09:22:05;;;;;;;4.43;3.17;;;;;;;26.78;23.48;99205.28;5016951;28;20055;-65
2023/04/05 09:24:40;;;;;;;4.78;3.00;;;;;;;27.42;23.73;99204.81;5012464;28;20028;-65
2023/04/05 09:27:10;;;;;;;6.10;3.15;;;;;;;29.05;21.48;99209.81;5011553;28;20029;-65
2023/04/05 09:29:38;;;;;;;4.38;2.85;;;;;;;29.91;21.35;99205.09;5025450;28;20025;-65
2023/04/05 09:32:05;;;;;;;3.72;2.70;;;;;;;26.24;23.74;99204.59;5004452;28;20025;-64
2023/04/05 09:34:32;;;;;;;3.60;2.85;;;;;;;26.39;23.16;99197.19;5001438;28;20032;-65
2023/04/05 09:36:58;;;;;;;4.00;2.50;;;;;;;29.22;22.52;99197.97;5011134;28;20485;-65
2023/04/05 09:39:29;;;;;;;5.07;2.60;;;;;;;29.26;21.13;99195.38;5005130;28;20049;-68
2023/04/05 09:42:11;;;;;;;6.07;2.60;;;;;;;29.55;21.71;99199.66;5003441;28;20053;-68
2023/04/05 09:44:55;;;;;;;4.72;2.70;;;;;;;27.23;21.50;99205.69;5013458;28;20036;-69
2023/04/05 09:47:23;;;;;;;5.13;3.05;;;;;;;24.05;23.93;99207.13;5009827;28;20025;-68
2023/04/05 09:49:49;;;;;;;4.22;3.10;;;;;;;24.20;24.48;99190.47;5005774;28;20029;-67
2023/04/05 09:52:26;;;;;;;6.03;2.83;;;;;;;26.93;23.13;99184.75;5006678;28;20029;-69
2023/04/05 09:54:55;;;;;;;6.93;3.30;;;;;;;25.17;23.09;99194.63;5010459;28;20093;-69
2023/04/05 09:57:22;;;;;;;3.75;2.80;;;;;;;24.78;22.64;99203.75;5019546;28;20063;-68
2023/04/05 09:59:47;;;;;;;4.07;2.85;;;;;;;26.20;23.46;99188.84;5034552;28;20141;-68
2023/04/05 10:02:13;;;;;;;4.45;2.95;;;;;;;26.85;22.63;99194.63;5006891;28;21890;-68
2023/04/05 10:04:43;;;;;;;5.32;2.67;;;;;;;29.96;21.28;99181.81;5011958;28;20034;-68
2023/04/05 10:07:14;;;;;;;5.82;2.55;;;;;;;30.59;20.95;99174.94;5003250;28;20068;-70
2023/04/05 10:09:42;;;;;;;4.82;2.70;;;;;;;29.07;20.37;99184.44;5002645;28;20128;-68
2023/04/05 10:12:08;;;;;;;3.75;2.72;;;;;;;26.92;21.15;99173.97;5005631;28;20048;-68
2023/04/05 10:14:36;;;;;;;7.03;3.33;;;;;;;25.56;22.47;99175.13;5008407;28;20132;-69
2023/04/05 10:17:13;;;;;;;6.45;3.33;;;;;;;24.21;23.56;99171.97;5001888;28;20385;-69
2023/04/05 10:20:08;;;;;;;6.93;2.90;;;;;;;24.33;23.95;99169.69;5007457;28;20033;-69
2023/04/05 10:23:09;;;;;;;5.95;3.40;;;;;;;25.58;23.10;99172.09;5017951;28;20065;-68
2023/04/05 10:25:51;;;;;;;6.35;3.30;;;;;;;25.01;23.41;99162.63;5009601;28;20040;-69
2023/04/05 10:28:29;;;;;;;5.40;2.60;;;;;;;25.05;23.39;99158.16;5022293;28;20111;-69
2023/04/05 10:31:08;;;;;;;5.07;3.25;;;;;;;26.61;22.40;99158.59;5010029;28;20025;-69
2023/04/05 10:33:45;;;;;;;5.50;2.92;;;;;;;23.59;23.64;99168.56;5004409;28;20036;-69
2023/04/05 10:36:30;;;;;;;6.10;2.88;;;;;;;26.47;22.89;99160.47;5021342;28;20053;-69
2023/04/05 10:39:03;;;;;;;4.50;2.97;;;;;;;27.05;21.91;99154.56;5010915;28;20037;-69
2023/04/05 10:41:35;;;;;;;3.45;2.67;;;;;;;26.85;22.45;99154.91;5014515;28;20025;-69
2023/04/05 10:44:02;;;;;;;4.90;3.30;;;;;;;27.27;21.85;99158.66;5003584;28;20030;-69
2023/04/05 10:46:30;;;;;;;5.70;3.13;;;;;;;28.82;22.76;99158.81;5003151;28;20029;-69
2023/04/05 10:49:06;;;;;;;8.10;3.05;;;;;;;26.32;22.01;99158.72;5001738;28;20050;-69
2023/04/05 10:51:33;;;;;;;4.57;3.00;;;;;;;26.28;22.93;99154.91;5010967;28;20033;-69
2023/04/05 10:53:59;;;;;;;4.82;2.63;;;;;;;28.35;22.14;99132.34;5002848;28;20117;-70
2023/04/05 10:56:26;;;;;;;7.45;3.17;;;;;;;27.80;21.58;99151.84;5006373;28;20018;-65
2023/04/05 10:58:54;;;;;;;5.28;2.88;;;;;;;27.70;22.32;99142.59;4998716;28;20040;-65
2023/04/05 11:01:20;;;;;;;3.80;2.90;;;;;;;27.73;21.88;99141.97;5006354;28;20041;-66
2023/04/05 11:03:48;;;;;;;4.25;2.90;;;;;;;29.52;21.39;99138.94;5002785;28;20065;-66
2023/04/05 11:06:39;;;;;;;5.10;2.50;;;;;;;30.77;20.00;99143.06;5026690;28;20025;-66
2023/04/05 11:09:16;;;;;;;3.95;2.50;;;;;;;31.35;19.61;99132.47;5008502;28;20057;-66
2023/04/05 11:11:43;;;;;;;4.75;2.95;;;;;;;28.15;21.04;99142.78;5009412;28;20041;-66
2023/04/05 11:14:22;;;;;;;5.93;3.03;;;;;;;27.68;20.85;99135.69;5003887;28;20052;-70
2023/04/05 11:16:55;;;;;;;6.90;3.13;;;;;;;26.30;22.28;99132.41;5023738;28;20280;-66
2023/04/05 11:19:46;;;;;;;5.30;3.45;;;;;;;25.02;22.57;99144.88;5012793;28;20128;-65
2023/04/05 11:22:23;;;;;;;5.82;3.10;;;;;;;25.49;22.41;99137.81;5010755;28;20021;-65
2023/04/05 11:24:53;;;;;;;9.85;3.63;;;;;;;24.48;23.15;99135.63;5012766;28;20025;-65
2023/04/05 11:27:58;;;;;;;6.03;3.60;;;;;;;21.22;25.35;99140.66;5010339;28;20041;-65
2023/04/05 11:30:55;;;;;;;6.68;3.20;;;;;;;24.35;25.68;99127.94;5014543;28;21082;-66
2023/04/05 11:33:48;;;;;;;5.55;3.17;;;;;;;25.80;23.91;99128.03;5011463;28;20084;-66
2023/04/05 11:36:31;;;;;;;4.07;3.05;;;;;;;26.45;22.03;99124.69;5001976;28;20030;-66